createdAt,value
2022-09-30T00:00:48.164Z,6.80
2022-09-30T00:03:37.135Z,6.80
2022-09-30T00:06:24.676Z,6.80
2022-09-30T00:09:13.056Z,6.80
2022-09-30T00:11:59.985Z,6.80
2022-09-30T00:14:46.784Z,6.80
2022-09-30T00:17:33.709Z,6.80
2022-09-30T00:20:21.922Z,6.90
2022-09-30T00:23:08.640Z,6.80
2022-09-30T00:25:59.908Z,6.80
2022-09-30T00:28:50.324Z,6.90
2022-09-30T00:31:37.276Z,6.80
2022-09-30T00:34:24.271Z,6.90
2022-09-30T00:37:15.220Z,6.80
2022-09-30T00:40:02.690Z,6.80
2022-09-30T00:42:49.485Z,6.90
2022-09-30T00:45:36.017Z,6.80
2022-09-30T00:48:29.369Z,6.80
2022-09-30T00:51:16.551Z,6.80
2022-09-30T00:54:08.031Z,6.80
2022-09-30T00:57:00.366Z,6.80
2022-09-30T00:59:49.411Z,6.80
2022-09-30T01:02:36.511Z,6.80
2022-09-30T01:05:25.437Z,6.80
2022-09-30T01:08:12.594Z,6.70
2022-09-30T01:11:04.518Z,6.70
2022-09-30T01:13:58.317Z,6.80
2022-09-30T01:16:54.553Z,6.80
2022-09-30T01:20:08.608Z,6.80
2022-09-30T01:23:07.555Z,6.80
2022-09-30T01:26:30.133Z,6.90
2022-09-30T01:29:45.201Z,6.90
2022-09-30T01:32:49.190Z,6.90
2022-09-30T01:35:55.521Z,6.90
2022-09-30T01:38:49.715Z,6.90
2022-09-30T01:41:45.468Z,6.90
2022-09-30T01:44:39.484Z,6.90
2022-09-30T01:47:30.359Z,6.90
2022-09-30T01:50:23.230Z,6.90
2022-09-30T01:53:16.175Z,6.90
2022-09-30T01:56:09.977Z,6.80
2022-09-30T01:59:02.660Z,6.90
2022-09-30T02:01:54.214Z,6.80
2022-09-30T02:04:46.439Z,6.80
2022-09-30T02:07:39.418Z,6.80
2022-09-30T02:10:29.960Z,6.80
2022-09-30T02:13:20.433Z,6.80
2022-09-30T02:16:13.882Z,6.80
2022-09-30T02:19:09.814Z,6.70
2022-09-30T02:22:01.826Z,6.70
2022-09-30T02:24:55.689Z,6.70
2022-09-30T02:27:48.309Z,6.70
2022-09-30T02:30:37.077Z,6.70
2022-09-30T02:33:30.820Z,6.70
2022-09-30T02:36:24.360Z,6.70
2022-09-30T02:39:17.582Z,6.60
2022-09-30T02:42:12.744Z,6.60
2022-09-30T02:45:02.799Z,6.60
2022-09-30T02:48:06.165Z,6.50
2022-09-30T02:50:55.994Z,6.40
2022-09-30T02:53:50.552Z,6.40
2022-09-30T02:56:48.914Z,6.50
2022-09-30T02:59:37.394Z,6.50
2022-09-30T03:02:24.805Z,6.50
2022-09-30T03:05:12.743Z,6.40
2022-09-30T03:07:59.779Z,6.50
2022-09-30T03:10:50.876Z,6.40
2022-09-30T03:14:09.760Z,6.40
2022-09-30T03:17:23.624Z,6.50
2022-09-30T03:20:40.360Z,6.60
2022-09-30T03:23:47.630Z,6.60
2022-09-30T03:26:41.088Z,6.60
2022-09-30T03:29:37.519Z,6.60
2022-09-30T03:32:42.770Z,6.60
2022-09-30T03:35:35.075Z,6.50
2022-09-30T03:38:34.024Z,6.50
2022-09-30T03:41:27.026Z,6.60
2022-09-30T03:44:20.581Z,6.60
2022-09-30T03:47:11.099Z,6.70
2022-09-30T03:50:01.973Z,6.60
2022-09-30T03:52:50.110Z,6.60
2022-09-30T03:55:47.910Z,6.70
2022-09-30T03:58:35.260Z,6.60
2022-09-30T04:01:23.254Z,6.60
2022-09-30T04:04:09.953Z,6.60
2022-09-30T04:06:57.879Z,6.60
2022-09-30T04:09:44.590Z,6.60
2022-09-30T04:12:31.455Z,6.60
2022-09-30T04:15:18.240Z,6.60
2022-09-30T04:18:05.970Z,6.60
2022-09-30T04:20:52.594Z,6.60
2022-09-30T04:23:42.732Z,6.60
2022-09-30T04:26:29.319Z,6.70
2022-09-30T04:29:16.394Z,6.70
2022-09-30T04:32:03.435Z,6.70
2022-09-30T04:34:50.334Z,6.70
2022-09-30T04:37:37.203Z,6.70
2022-09-30T04:40:26.333Z,6.70
2022-09-30T04:43:13.266Z,6.80
2022-09-30T04:46:00.264Z,6.70
2022-09-30T04:48:48.411Z,6.60
2022-09-30T04:51:36.014Z,6.50
2022-09-30T04:54:23.244Z,6.60
2022-09-30T04:57:11.159Z,6.70
2022-09-30T04:59:58.262Z,6.70
2022-09-30T05:02:45.873Z,6.80
2022-09-30T05:05:35.894Z,6.80
2022-09-30T05:08:23.619Z,6.70
2022-09-30T05:11:14.640Z,6.70
2022-09-30T05:14:04.389Z,6.70
2022-09-30T05:16:51.036Z,6.70
2022-09-30T05:19:37.779Z,6.70
2022-09-30T05:22:25.107Z,6.70
2022-09-30T05:25:11.974Z,6.70
2022-09-30T05:28:14.670Z,6.70
2022-09-30T05:31:07.203Z,6.70
2022-09-30T05:33:58.105Z,6.70
2022-09-30T05:36:45.374Z,6.60
2022-09-30T05:39:32.253Z,6.60
2022-09-30T05:42:19.836Z,6.50
2022-09-30T05:45:07.640Z,6.50
2022-09-30T05:47:56.280Z,6.50
2022-09-30T05:50:43.009Z,6.60
2022-09-30T05:53:31.998Z,6.50
2022-09-30T05:56:19.097Z,6.50
2022-09-30T05:59:05.937Z,6.60
2022-09-30T06:01:53.906Z,6.60
2022-09-30T06:04:42.214Z,6.50
2022-09-30T06:07:28.902Z,6.50
2022-09-30T06:10:15.668Z,6.60
2022-09-30T06:13:04.612Z,6.70
2022-09-30T06:15:58.122Z,6.70
2022-09-30T06:18:45.624Z,6.70
2022-09-30T06:21:33.909Z,6.80
2022-09-30T06:24:20.814Z,6.90
2022-09-30T06:27:07.461Z,6.90
2022-09-30T06:29:54.296Z,7.00
2022-09-30T06:32:41.083Z,7.00
2022-09-30T06:35:28.652Z,7.00
2022-09-30T06:38:17.299Z,7.10
2022-09-30T06:41:05.151Z,7.10
2022-09-30T06:44:00.410Z,7.10
2022-09-30T06:46:54.869Z,7.10
2022-09-30T06:49:49.099Z,7.20
2022-09-30T06:52:37.087Z,7.20
2022-09-30T06:55:27.074Z,7.20
2022-09-30T06:58:16.726Z,7.00
2022-09-30T07:01:05.887Z,7.00
2022-09-30T07:03:58.175Z,7.10
2022-09-30T07:06:45.195Z,7.20
2022-09-30T07:09:32.259Z,7.30
2022-09-30T07:12:20.492Z,7.30
2022-09-30T07:15:11.495Z,7.30
2022-09-30T07:18:01.516Z,7.20
2022-09-30T07:20:52.783Z,7.50
2022-09-30T07:23:48.037Z,7.70
2022-09-30T07:26:35.616Z,7.80
2022-09-30T07:29:23.652Z,7.90
2022-09-30T07:32:10.884Z,7.90
2022-09-30T07:34:58.031Z,7.90
2022-09-30T07:37:44.938Z,7.90
2022-09-30T07:40:31.650Z,7.60
2022-09-30T07:43:19.130Z,7.60
2022-09-30T07:46:09.378Z,7.70
2022-09-30T07:49:00.602Z,7.80
2022-09-30T07:51:47.637Z,8.00
2022-09-30T07:54:40.491Z,8.20
2022-09-30T07:57:31.470Z,8.20
2022-09-30T08:00:41.258Z,8.30
2022-09-30T08:03:26.804Z,8.30
2022-09-30T08:06:17.954Z,8.30
2022-09-30T08:09:05.051Z,8.50
2022-09-30T08:11:52.737Z,8.70
2022-09-30T08:14:39.427Z,8.80
2022-09-30T08:17:26.514Z,9.00
2022-09-30T08:20:18.778Z,9.30
2022-09-30T08:23:08.155Z,9.60
2022-09-30T08:26:02.496Z,9.60
2022-09-30T08:28:51.705Z,9.50
2022-09-30T08:31:38.966Z,9.50
2022-09-30T08:34:25.890Z,9.50
2022-09-30T08:37:14.306Z,9.50
2022-09-30T08:40:02.153Z,9.60
2022-09-30T08:43:03.623Z,9.50
2022-09-30T08:45:59.514Z,9.60
2022-09-30T08:48:53.966Z,9.90
2022-09-30T08:51:46.972Z,10.10
2022-09-30T08:54:40.230Z,10.60
2022-09-30T08:57:32.031Z,11.50
2022-09-30T09:00:20.329Z,12.00
2022-09-30T09:03:07.215Z,12.10
2022-09-30T09:06:01.765Z,12.70
2022-09-30T09:09:00.726Z,13.10
2022-09-30T09:12:01.844Z,12.20
2022-09-30T09:15:03.363Z,11.90
2022-09-30T09:18:25.263Z,11.50
2022-09-30T09:21:25.115Z,10.50
2022-09-30T09:24:17.015Z,10.10
2022-09-30T09:27:19.372Z,10.20
2022-09-30T09:30:08.998Z,10.00
2022-09-30T09:32:57.880Z,9.90
2022-09-30T09:35:51.446Z,10.10
2022-09-30T09:38:53.933Z,10.30
2022-09-30T09:41:47.675Z,10.40
2022-09-30T09:44:44.015Z,10.70
2022-09-30T09:47:30.999Z,10.80
2022-09-30T09:50:22.822Z,10.60
2022-09-30T09:53:35.080Z,10.70
2022-09-30T09:56:25.490Z,10.80
2022-09-30T09:59:19.749Z,10.70
2022-09-30T10:02:24.501Z,10.90
2022-09-30T10:05:26.203Z,11.00
2022-09-30T10:08:17.209Z,11.10
2022-09-30T10:11:06.571Z,11.10
2022-09-30T10:13:56.959Z,11.10
2022-09-30T10:16:43.942Z,11.20
2022-09-30T10:19:35.486Z,11.20
2022-09-30T10:22:28.733Z,11.10
2022-09-30T10:25:22.715Z,11.10
2022-09-30T10:28:24.892Z,11.20
2022-09-30T10:31:18.418Z,11.30
2022-09-30T10:34:12.870Z,11.40
2022-09-30T10:37:03.331Z,11.40
2022-09-30T10:39:58.935Z,11.60
2022-09-30T10:42:48.591Z,11.60
2022-09-30T10:45:41.338Z,11.80
2022-09-30T10:48:32.471Z,11.70
2022-09-30T10:51:25.973Z,11.20
2022-09-30T10:54:45.633Z,10.90
2022-09-30T10:57:35.411Z,10.70
2022-09-30T11:00:25.462Z,11.20
2022-09-30T11:03:15.940Z,11.40
2022-09-30T11:06:02.855Z,11.70
2022-09-30T11:08:56.716Z,12.50
2022-09-30T11:11:51.575Z,12.90
2022-09-30T11:14:45.779Z,13.00
2022-09-30T11:17:40.820Z,12.60
2022-09-30T11:20:33.336Z,12.60
2022-09-30T11:23:27.569Z,12.30
2022-09-30T11:26:22.892Z,11.90
2022-09-30T11:29:40.531Z,11.80
2022-09-30T11:32:40.028Z,11.80
2022-09-30T11:35:42.141Z,12.00
2022-09-30T11:38:51.741Z,11.80
2022-09-30T11:41:42.168Z,11.80
2022-09-30T11:44:35.282Z,11.90
2022-09-30T11:47:46.254Z,11.80
2022-09-30T11:50:48.651Z,11.70
2022-09-30T11:53:44.046Z,11.50
2022-09-30T11:56:40.241Z,11.60
2022-09-30T11:59:32.147Z,11.60
2022-09-30T12:02:32.466Z,11.50
2022-09-30T12:05:26.097Z,11.40
2022-09-30T12:08:19.169Z,11.30
2022-09-30T12:11:11.070Z,11.30
2022-09-30T12:14:04.839Z,11.70
2022-09-30T12:16:53.799Z,11.80
2022-09-30T12:19:45.482Z,11.60
2022-09-30T12:22:39.695Z,11.60
2022-09-30T12:25:31.264Z,11.40
2022-09-30T12:28:45.467Z,11.50
2022-09-30T12:31:52.716Z,11.50
2022-09-30T12:35:02.151Z,11.50
2022-09-30T12:38:03.137Z,11.50
2022-09-30T12:41:12.015Z,11.80
2022-09-30T12:44:42.117Z,11.90
2022-09-30T12:47:45.959Z,12.10
2022-09-30T12:50:41.371Z,12.20
2022-09-30T12:53:33.093Z,12.40
2022-09-30T12:56:20.548Z,12.50
2022-09-30T12:59:09.964Z,12.50
2022-09-30T13:02:00.236Z,12.20
2022-09-30T13:04:52.129Z,12.20
2022-09-30T13:08:25.675Z,12.50
2022-09-30T13:11:37.294Z,12.50
2022-09-30T13:14:36.317Z,12.40
2022-09-30T13:17:27.620Z,12.40
2022-09-30T13:20:47.949Z,12.20
2022-09-30T13:23:41.177Z,12.20
2022-09-30T13:26:51.809Z,12.30
2022-09-30T13:29:58.688Z,12.40
2022-09-30T13:32:51.511Z,12.70
2022-09-30T13:35:50.255Z,12.80
2022-09-30T13:38:41.510Z,12.90
2022-09-30T13:41:28.950Z,13.00
2022-09-30T13:44:21.718Z,13.00
2022-09-30T13:47:18.997Z,13.00
2022-09-30T13:50:16.169Z,13.00
2022-09-30T13:53:06.806Z,12.90
2022-09-30T13:55:56.418Z,12.90
2022-09-30T13:59:15.195Z,12.80
2022-09-30T14:02:33.831Z,12.70
2022-09-30T14:05:51.565Z,12.60
2022-09-30T14:08:52.946Z,12.30
2022-09-30T14:12:04.906Z,12.20
2022-09-30T14:15:10.671Z,12.00
2022-09-30T14:18:23.439Z,11.90
2022-09-30T14:21:26.981Z,11.60
2022-09-30T14:24:17.611Z,11.40
2022-09-30T14:27:34.484Z,11.20
2022-09-30T14:30:23.384Z,11.20
2022-09-30T14:33:24.226Z,11.00
2022-09-30T14:36:16.920Z,11.10
2022-09-30T14:39:04.281Z,11.00
2022-09-30T14:41:55.814Z,11.00
2022-09-30T14:44:44.102Z,11.00
2022-09-30T14:47:32.499Z,11.00
2022-09-30T14:50:21.770Z,11.00
2022-09-30T14:53:28.563Z,11.00
2022-09-30T14:56:22.022Z,10.90
2022-09-30T14:59:18.797Z,11.00
2022-09-30T15:02:18.425Z,11.00
2022-09-30T15:05:06.567Z,11.00
2022-09-30T15:07:54.705Z,11.10
2022-09-30T15:10:48.463Z,11.20
2022-09-30T15:13:36.150Z,11.30
2022-09-30T15:16:27.239Z,11.50
2022-09-30T15:19:21.159Z,11.50
2022-09-30T15:22:09.471Z,11.70
2022-09-30T15:24:58.178Z,11.70
2022-09-30T15:27:45.846Z,11.60
2022-09-30T15:30:33.205Z,11.50
2022-09-30T15:33:24.142Z,11.40
2022-09-30T15:36:17.237Z,11.30
2022-09-30T15:39:07.049Z,11.20
2022-09-30T15:41:53.915Z,11.20
2022-09-30T15:44:42.000Z,11.00
2022-09-30T15:47:57.694Z,11.20
2022-09-30T15:50:49.398Z,11.40
2022-09-30T15:53:48.778Z,11.40
2022-09-30T15:56:37.812Z,11.20
2022-09-30T15:59:24.842Z,11.10
2022-09-30T16:02:12.731Z,11.20
2022-09-30T16:05:02.084Z,11.30
2022-09-30T16:07:49.157Z,11.40
2022-09-30T16:10:39.656Z,11.40
2022-09-30T16:13:28.969Z,11.30
2022-09-30T16:16:22.652Z,11.10
2022-09-30T16:19:18.382Z,10.90
2022-09-30T16:22:05.133Z,10.80
2022-09-30T16:25:02.149Z,10.70
2022-09-30T16:27:57.687Z,10.60
2022-09-30T16:30:47.091Z,10.50
2022-09-30T16:33:38.162Z,10.40
2022-09-30T16:36:24.910Z,10.20
2022-09-30T16:39:13.774Z,10.10
2022-09-30T16:42:00.460Z,10.00
2022-09-30T16:44:49.859Z,9.90
2022-09-30T16:47:36.711Z,9.80
2022-09-30T16:50:30.833Z,9.70
2022-09-30T16:53:17.778Z,9.60
2022-09-30T16:56:04.925Z,9.50
2022-09-30T16:58:51.748Z,9.40
2022-09-30T17:01:40.018Z,9.30
2022-09-30T17:04:27.664Z,9.00
2022-09-30T17:07:15.838Z,8.90
2022-09-30T17:10:02.639Z,8.70
2022-09-30T17:12:50.953Z,8.60
2022-09-30T17:15:37.876Z,8.50
2022-09-30T17:18:30.018Z,8.40
2022-09-30T17:21:18.868Z,8.20
2022-09-30T17:24:05.994Z,8.00
2022-09-30T17:26:54.485Z,7.90
2022-09-30T17:29:42.609Z,7.80
2022-09-30T17:32:29.244Z,7.90
2022-09-30T17:35:17.681Z,7.90
2022-09-30T17:38:07.804Z,7.80
2022-09-30T17:41:12.227Z,7.60
2022-09-30T17:44:02.365Z,7.50
2022-09-30T17:46:49.395Z,7.30
2022-09-30T17:49:37.751Z,7.30
2022-09-30T17:52:25.954Z,7.20
2022-09-30T17:55:12.919Z,7.10
2022-09-30T17:57:59.820Z,7.00
2022-09-30T18:00:47.547Z,6.90
2022-09-30T18:03:34.545Z,6.80
2022-09-30T18:06:21.980Z,6.70
2022-09-30T18:09:11.370Z,6.70
2022-09-30T18:12:00.368Z,6.60
2022-09-30T18:14:47.357Z,6.50
2022-09-30T18:17:34.072Z,6.40
2022-09-30T18:20:24.924Z,6.30
2022-09-30T18:23:13.284Z,6.30
2022-09-30T18:26:01.710Z,6.40
2022-09-30T18:28:51.224Z,6.50
2022-09-30T18:31:39.421Z,6.50
2022-09-30T18:34:26.636Z,6.60
2022-09-30T18:37:13.774Z,6.70
2022-09-30T18:40:00.739Z,6.70
2022-09-30T18:42:49.358Z,6.70
2022-09-30T18:45:38.323Z,6.80
2022-09-30T18:48:26.230Z,6.80
2022-09-30T18:51:13.530Z,6.80
2022-09-30T18:54:02.022Z,6.90
2022-09-30T18:56:49.096Z,6.90
2022-09-30T18:59:37.241Z,6.70
2022-09-30T19:02:23.945Z,6.60
2022-09-30T19:05:11.459Z,6.50
2022-09-30T19:07:58.237Z,6.50
2022-09-30T19:10:44.771Z,6.50
2022-09-30T19:13:31.913Z,6.50
2022-09-30T19:16:20.158Z,6.50
2022-09-30T19:19:08.154Z,6.40
2022-09-30T19:22:00.245Z,6.30
2022-09-30T19:24:47.328Z,6.20
2022-09-30T19:27:36.116Z,6.30
2022-09-30T19:30:24.253Z,6.30
2022-09-30T19:33:12.142Z,6.30
2022-09-30T19:36:13.863Z,6.10
2022-09-30T19:39:12.227Z,6.10
2022-09-30T19:42:04.054Z,6.00
2022-09-30T19:44:51.950Z,6.00
2022-09-30T19:47:39.054Z,5.90
2022-09-30T19:50:27.252Z,5.80
2022-09-30T19:53:27.067Z,5.70
2022-09-30T19:56:19.109Z,5.60
2022-09-30T19:59:06.693Z,5.50
2022-09-30T20:01:53.380Z,5.40
2022-09-30T20:04:42.902Z,5.30
2022-09-30T20:07:31.710Z,5.10
2022-09-30T20:10:18.402Z,5.00
2022-09-30T20:13:05.242Z,4.90
2022-09-30T20:15:51.416Z,4.80
2022-09-30T20:18:39.837Z,4.70
2022-09-30T20:21:30.368Z,4.70
2022-09-30T20:24:20.998Z,4.60
2022-09-30T20:27:14.012Z,4.50
2022-09-30T20:30:02.081Z,4.50
2022-09-30T20:32:49.060Z,4.50
2022-09-30T20:35:36.904Z,4.50
2022-09-30T20:38:24.990Z,4.50
2022-09-30T20:41:15.486Z,4.50
2022-09-30T20:44:03.245Z,4.50
2022-09-30T20:46:49.726Z,4.50
2022-09-30T20:49:36.379Z,4.60
2022-09-30T20:52:23.245Z,4.60
2022-09-30T20:55:10.049Z,4.70
2022-09-30T20:57:58.258Z,4.80
2022-09-30T21:00:45.620Z,4.90
2022-09-30T21:03:36.103Z,5.00
2022-09-30T21:06:26.666Z,5.00
2022-09-30T21:09:13.646Z,5.00
2022-09-30T21:12:00.625Z,5.00
2022-09-30T21:14:49.150Z,5.00
2022-09-30T21:17:36.145Z,5.10
2022-09-30T21:20:22.905Z,5.10
2022-09-30T21:23:09.741Z,5.10
2022-09-30T21:25:59.750Z,5.10
2022-09-30T21:28:49.225Z,5.10
2022-09-30T21:31:39.383Z,5.00
2022-09-30T21:34:26.918Z,5.00
2022-09-30T21:37:13.898Z,5.00
2022-09-30T21:40:01.144Z,5.00
2022-09-30T21:42:48.122Z,5.00
2022-09-30T21:45:34.932Z,4.90
2022-09-30T21:48:23.407Z,4.90
2022-09-30T21:51:11.164Z,4.90
2022-09-30T21:53:58.318Z,4.80
2022-09-30T21:56:45.126Z,4.80
2022-09-30T21:59:32.024Z,4.70
2022-09-30T22:02:18.760Z,4.70
2022-09-30T22:05:07.606Z,4.70
2022-09-30T22:07:54.377Z,4.70
2022-09-30T22:10:44.504Z,4.60
2022-09-30T22:13:31.566Z,4.60
2022-09-30T22:16:19.828Z,4.50
2022-09-30T22:19:08.212Z,4.50
2022-09-30T22:21:56.720Z,4.40
2022-09-30T22:24:43.630Z,4.30
2022-09-30T22:27:31.851Z,4.20
2022-09-30T22:30:18.926Z,4.20
2022-09-30T22:33:23.325Z,4.20
2022-09-30T22:36:27.538Z,4.20
2022-09-30T22:39:15.487Z,4.10
2022-09-30T22:42:02.713Z,4.10
2022-09-30T22:44:49.673Z,4.10
2022-09-30T22:47:37.048Z,4.00
2022-09-30T22:50:25.235Z,4.00
2022-09-30T22:53:12.311Z,4.00
2022-09-30T22:56:04.882Z,4.00
2022-09-30T22:58:51.443Z,4.00
2022-09-30T23:01:38.384Z,4.00
2022-09-30T23:04:27.102Z,4.00
2022-09-30T23:07:13.664Z,3.90
2022-09-30T23:10:01.131Z,3.90
2022-09-30T23:12:51.899Z,3.90
2022-09-30T23:15:38.500Z,3.90
2022-09-30T23:18:25.183Z,3.90
2022-09-30T23:21:14.150Z,3.80
2022-09-30T23:24:01.215Z,3.80
2022-09-30T23:26:48.197Z,3.80
2022-09-30T23:29:36.318Z,3.70
2022-09-30T23:32:23.246Z,3.70
2022-09-30T23:35:13.116Z,3.70
2022-09-30T23:37:59.880Z,3.60
2022-09-30T23:40:47.593Z,3.60
2022-09-30T23:43:35.580Z,3.70
2022-09-30T23:46:24.075Z,3.70
2022-09-30T23:49:10.969Z,3.70
2022-09-30T23:51:58.009Z,3.70
2022-09-30T23:54:45.323Z,3.70
2022-09-30T23:57:33.154Z,3.70
